Time;durP1;ratioP1;P1;durP2;ratioP2;P2;SDS_P1;SDS_P2;PMS_P1;PMS_P2;Temp;Humidity;BMP_temperature;BMP_pressure;BME280_temperature;BME280_humidity;BME280_pressure;Samples;Min_cycle;Max_cycle;Signal;HPM_P1;HPM_P2
2023/07/17 00:02:00;;;;;;;;;3.67;3.67;;;;;22.27;44.59;101365.91;4958183;28;45307;-72
2023/07/17 00:04:29;;;;;;;;;4.00;4.00;;;;;22.31;44.58;101364.00;4957375;28;45416;-71
2023/07/17 00:06:55;;;;;;;;;2.00;2.00;;;;;22.26;44.61;101360.63;4957498;28;46658;-67
2023/07/17 00:09:20;;;;;;;;;2.00;2.00;;;;;22.10;44.39;101329.16;4960506;28;45455;-70
2023/07/17 00:11:46;;;;;;;;;3.33;2.33;;;;;22.05;44.39;101320.44;4960549;28;45342;-70
2023/07/17 00:14:13;;;;;;;;;3.33;2.00;;;;;22.01;44.23;101329.47;4961147;28;45577;-71
2023/07/17 00:16:38;;;;;;;;;2.33;2.00;;;;;22.21;44.66;101374.16;4960426;28;46099;-70
2023/07/17 00:19:04;;;;;;;;;4.00;2.00;;;;;22.10;44.82;101362.97;4960221;28;45516;-70
2023/07/17 00:21:30;;;;;;;;;3.00;1.33;;;;;22.19;44.60;101375.97;4959095;28;46133;-69
2023/07/17 00:23:57;;;;;;;;;19.67;19.33;;;;;22.22;44.65;101360.75;4979750;28;45461;-70
2023/07/17 00:26:23;;;;;;;;;17.33;12.00;;;;;22.16;44.85;101349.38;4981053;28;46126;-68
2023/07/17 00:28:48;;;;;;;;;8.00;5.00;;;;;22.07;44.53;101358.59;4979510;28;45631;-69
2023/07/17 00:31:14;;;;;;;;;3.00;3.00;;;;;22.12;44.98;101371.78;4980327;28;45314;-70
2023/07/17 00:33:39;;;;;;;;;4.00;4.00;;;;;21.93;45.32;101358.22;4979949;28;45321;-69
2023/07/17 00:36:09;;;;;;;;;2.33;2.00;;;;;21.82;45.66;101347.94;4980067;28;45425;-68
2023/07/17 00:38:35;;;;;;;;;4.67;3.33;;;;;21.86;45.46;101362.03;4979706;28;45565;-69
2023/07/17 00:41:01;;;;;;;;;4.00;4.00;;;;;21.73;45.87;101362.44;4979902;28;45455;-71
2023/07/17 00:43:29;;;;;;;;;4.33;2.00;;;;;21.72;46.04;101367.84;4979374;28;45401;-71
2023/07/17 00:45:58;;;;;;;;;7.00;5.33;;;;;21.60;46.14;101339.81;4979235;28;46450;-70
2023/07/17 00:48:24;;;;;;;;;4.00;4.00;;;;;21.77;46.13;101371.22;4979514;28;45683;-70
2023/07/17 00:50:51;;;;;;;;;2.33;2.33;;;;;21.89;45.49;101370.78;4980226;28;45530;-69
2023/07/17 00:53:17;;;;;;;;;5.33;4.00;;;;;21.73;45.78;101350.91;4980535;28;45460;-68
2023/07/17 00:55:43;;;;;;;;;4.00;2.67;;;;;21.86;45.68;101370.91;4980264;28;45341;-70
2023/07/17 00:58:09;;;;;;;;;2.67;2.33;;;;;21.94;45.71;101368.81;4962781;28;45648;-69
2023/07/17 01:00:36;;;;;;;;;3.67;3.67;;;;;21.93;45.92;101372.44;4960087;28;45464;-70
2023/07/17 01:03:03;;;;;;;;;3.33;2.67;;;;;21.89;46.26;101377.94;4960028;28;45527;-69
2023/07/17 01:05:28;;;;;;;;;7.00;5.00;;;;;21.91;46.50;101379.59;4961109;28;46121;-69
2023/07/17 01:07:55;;;;;;;;;4.33;3.33;;;;;21.78;47.24;101387.19;4959535;28;45779;-70
2023/07/17 01:10:21;;;;;;;;;4.33;4.33;;;;;21.54;47.13;101350.66;4986882;28;45541;-68
2023/07/17 01:12:46;;;;;;;;;3.00;3.00;;;;;21.69;46.82;101382.16;4980614;28;45386;-66
2023/07/17 01:15:12;;;;;;;;;6.33;3.00;;;;;21.76;46.90;101388.16;4977366;28;47186;-67
2023/07/17 01:17:37;;;;;;;;;4.00;2.67;;;;;21.79;47.19;101396.03;4977261;28;45417;-70
2023/07/17 01:20:05;;;;;;;;;3.00;3.00;;;;;21.57;47.06;101362.13;4968141;28;45458;-68
2023/07/17 01:22:38;;;;;;;;;3.67;3.67;;;;;21.76;47.11;101391.69;4959157;28;45321;-68
2023/07/17 01:25:04;;;;;;;;;2.67;2.00;;;;;21.61;47.20;101386.84;4958976;28;46371;-68
2023/07/17 01:27:30;;;;;;;;;2.33;2.00;;;;;21.68;47.19;101390.19;4957808;28;45814;-68
2023/07/17 01:29:55;;;;;;;;;2.00;2.00;;;;;21.70;47.45;101399.00;4959531;28;45243;-68
2023/07/17 01:32:21;;;;;;;;;3.00;3.00;;;;;21.62;47.40;101383.28;4959454;28;45376;-67
2023/07/17 01:34:47;;;;;;;;;2.00;2.00;;;;;21.47;47.46;101366.00;4958955;28;45476;-68
2023/07/17 01:37:13;;;;;;;;;4.00;3.00;;;;;21.45;47.24;101375.84;4960006;28;45432;-66
2023/07/17 01:39:42;;;;;;;;;3.33;2.33;;;;;21.34;47.11;101353.97;4964502;28;45494;-70
2023/07/17 01:42:08;;;;;;;;;4.67;2.00;;;;;21.50;46.93;101387.22;4979816;28;45451;-70
2023/07/17 01:44:34;;;;;;;;;3.67;3.67;;;;;21.37;46.88;101360.06;4981541;28;45652;-67
2023/07/17 01:47:00;;;;;;;;;2.67;2.67;;;;;21.27;46.76;101361.31;4981195;28;45535;-71
2023/07/17 01:49:25;;;;;;;;;2.00;2.00;;;;;21.55;46.92;101398.59;4977081;28;45447;-69
2023/07/17 01:51:51;;;;;;;;;5.00;3.00;;;;;21.36;47.17;101382.31;4960057;28;45476;-69
2023/07/17 01:54:16;;;;;;;;;3.00;2.67;;;;;21.38;46.88;101376.94;4958837;28;46097;-69
2023/07/17 01:56:43;;;;;;;;;1.33;1.33;;;;;21.07;47.34;101335.31;4959247;28;45515;-71
2023/07/17 01:59:09;;;;;;;;;3.00;2.00;;;;;21.40;47.48;101399.09;4973710;28;45429;-69
2023/07/17 02:01:34;;;;;;;;;4.33;2.67;;;;;21.45;47.44;101396.28;4979602;28;45491;-70
2023/07/17 02:04:01;;;;;;;;;1.67;1.67;;;;;21.44;47.56;101391.88;4978259;28;46168;-70
2023/07/17 02:06:30;;;;;;;;;5.00;5.00;;;;;21.31;47.68;101364.75;4972189;28;45325;-70
2023/07/17 02:08:56;;;;;;;;;6.00;4.00;;;;;21.56;47.94;101399.47;4958613;28;45536;-69
2023/07/17 02:11:26;;;;;;;;;3.67;3.00;;;;;21.53;47.76;101400.44;4958721;28;45453;-68
2023/07/17 02:13:52;;;;;;;;;5.33;3.67;;;;;21.58;48.11;101406.50;4958262;28;45558;-68
2023/07/17 02:16:22;;;;;;;;;5.67;4.67;;;;;21.64;47.74;101401.88;4963376;28;45523;-69
2023/07/17 02:18:48;;;;;;;;;3.00;3.00;;;;;21.66;47.86;101414.22;4978573;28;45583;-71
2023/07/17 02:21:14;;;;;;;;;3.00;3.00;;;;;21.28;47.90;101348.84;4978381;28;45496;-70
2023/07/17 02:23:43;;;;;;;;;4.67;3.33;;;;;21.72;48.20;101407.84;4977793;28;46309;-71
2023/07/17 02:26:10;;;;;;;;;4.00;3.00;;;;;21.37;48.13;101361.88;4977935;28;45532;-70
2023/07/17 02:28:36;;;;;;;;;4.67;3.67;;;;;21.73;48.25;101415.75;4978776;28;45344;-70
2023/07/17 02:31:02;;;;;;;;;5.33;2.67;;;;;21.35;48.07;101339.72;4978500;28;45452;-68
2023/07/17 02:33:28;;;;;;;;;4.00;3.00;;;;;21.72;47.73;101403.38;4975442;28;45539;-71
2023/07/17 02:35:55;;;;;;;;;3.00;3.00;;;;;21.71;47.80;101396.31;4958390;28;45432;-69
2023/07/17 02:38:20;;;;;;;;;3.33;3.33;;;;;21.65;48.53;101416.97;4958654;28;45380;-70
2023/07/17 02:40:49;;;;;;;;;3.67;3.33;;;;;21.48;48.89;101409.53;4958061;28;45358;-70
2023/07/17 02:43:15;;;;;;;;;4.33;3.67;;;;;21.25;48.75;101392.44;4958534;28;45366;-71
2023/07/17 02:45:41;;;;;;;;;3.67;3.67;;;;;21.29;49.02;101412.75;4977697;28;45519;-70
2023/07/17 02:48:06;;;;;;;;;7.67;3.00;;;;;21.18;49.10;101398.88;4977786;28;45428;-70
2023/07/17 02:50:32;;;;;;;;;2.67;1.67;;;;;21.35;49.02;101427.66;4978670;28;45241;-72
2023/07/17 02:52:58;;;;;;;;;3.67;3.67;;;;;21.35;49.05;101425.00;4977511;28;46285;-70
2023/07/17 02:55:24;;;;;;;;;3.00;2.33;;;;;21.08;49.57;101402.78;4977314;28;45511;-68
2023/07/17 02:57:49;;;;;;;;;4.67;3.00;;;;;21.01;49.24;101399.41;4964240;28;45388;-68
2023/07/17 03:00:17;;;;;;;;;4.00;3.00;;;;;21.19;49.16;101424.63;4956690;28;45463;-70
2023/07/17 03:02:44;;;;;;;;;4.00;3.33;;;;;21.25;48.77;101427.06;4959078;28;46256;-69
2023/07/17 03:05:11;;;;;;;;;6.00;4.00;;;;;21.33;48.29;101434.81;4957877;28;45552;-69
2023/07/17 03:07:41;;;;;;;;;5.00;2.33;;;;;21.38;48.29;101430.25;4958280;28;45408;-70
2023/07/17 03:10:08;;;;;;;;;3.00;2.33;;;;;21.33;48.60;101434.81;4958652;28;45381;-69
2023/07/17 03:12:34;;;;;;;;;6.00;5.00;;;;;20.90;48.59;101369.56;4957328;28;47318;-70
2023/07/17 03:15:00;;;;;;;;;5.00;3.00;;;;;21.01;48.34;101383.44;4961830;28;45552;-68
2023/07/17 03:17:29;;;;;;;;;2.00;1.67;;;;;21.14;48.17;101427.44;4977771;28;45522;-69
2023/07/17 03:19:54;;;;;;;;;3.33;2.00;;;;;21.07;48.53;101428.53;4977656;28;45467;-68
2023/07/17 03:22:20;;;;;;;;;2.00;2.00;;;;;21.07;48.39;101423.22;4970561;28;46060;-70
2023/07/17 03:24:46;;;;;;;;;5.00;2.00;;;;;21.05;48.19;101414.41;4958544;28;45548;-69
2023/07/17 03:27:11;;;;;;;;;2.00;1.33;;;;;21.11;48.13;101410.66;4958277;28;45376;-69
2023/07/17 03:29:37;;;;;;;;;2.00;2.00;;;;;21.25;48.12;101435.06;4957922;28;45774;-70
2023/07/17 03:32:03;;;;;;;;;2.33;2.33;;;;;21.31;48.22;101440.22;4962563;28;46075;-70
2023/07/17 03:34:29;;;;;;;;;3.00;2.00;;;;;21.21;47.97;101422.75;4978016;28;45525;-69
2023/07/17 03:36:54;;;;;;;;;2.00;2.00;;;;;20.59;47.87;101332.38;4977316;28;45470;-69
2023/07/17 03:39:20;;;;;;;;;4.00;3.00;;;;;20.99;48.15;101411.03;4977168;28;45460;-69
2023/07/17 03:41:46;;;;;;;;;2.00;2.00;;;;;21.17;48.14;101434.44;4974194;28;48175;-69
2023/07/17 03:44:12;;;;;;;;;2.33;2.00;;;;;21.02;47.76;101413.59;4977633;28;45242;-70
2023/07/17 03:46:38;;;;;;;;;2.00;1.67;;;;;21.08;47.88;101430.28;4977305;28;45511;-71
2023/07/17 03:49:04;;;;;;;;;2.00;2.00;;;;;21.29;47.95;101462.50;4975600;28;46376;-67
2023/07/17 03:51:33;;;;;;;;;3.00;3.00;;;;;21.17;48.05;101437.97;4976824;28;45952;-70
2023/07/17 03:53:59;;;;;;;;;2.33;2.33;;;;;21.27;47.77;101454.53;4958113;28;45604;-70
2023/07/17 03:56:25;;;;;;;;;2.00;2.00;;;;;21.15;47.83;101431.81;4957497;28;45516;-69
2023/07/17 03:58:51;;;;;;;;;4.67;3.00;;;;;21.26;47.87;101450.16;4957772;28;45418;-68
2023/07/17 04:01:20;;;;;;;;;4.67;3.00;;;;;21.25;48.05;101463.50;4956859;28;46112;-67
2023/07/17 04:03:45;;;;;;;;;3.00;2.67;;;;;21.11;47.87;101445.28;4958262;28;45451;-70
2023/07/17 04:06:11;;;;;;;;;3.33;3.33;;;;;21.03;47.62;101436.66;4957129;28;45446;-67
2023/07/17 04:08:37;;;;;;;;;3.00;3.00;;;;;20.94;47.57;101428.03;4958164;28;45500;-71
2023/07/17 04:11:02;;;;;;;;;4.00;2.00;;;;;21.04;47.51;101441.94;4957688;28;46199;-69
2023/07/17 04:13:28;;;;;;;;;3.00;2.00;;;;;21.18;47.73;101466.34;4957106;28;45511;-67
2023/07/17 04:15:54;;;;;;;;;2.33;2.33;;;;;20.96;48.29;101462.59;4957235;28;45435;-68
2023/07/17 04:18:20;;;;;;;;;3.00;3.00;;;;;20.55;48.82;101440.69;4957128;28;45502;-69
2023/07/17 04:20:46;;;;;;;;;5.00;2.33;;;;;20.70;48.68;101466.03;4974882;28;46324;-67
2023/07/17 04:23:12;;;;;;;;;4.33;2.00;;;;;20.61;48.70;101445.84;4976606;28;45499;-70
2023/07/17 04:25:39;;;;;;;;;4.00;3.00;;;;;20.73;49.02;101468.59;4976787;28;45385;-68
2023/07/17 04:28:05;;;;;;;;;2.00;2.00;;;;;20.78;48.79;101479.97;4976808;28;45454;-74
2023/07/17 04:30:30;;;;;;;;;2.00;2.00;;;;;20.52;48.97;101438.09;4959675;28;46055;-71
2023/07/17 04:32:58;;;;;;;;;1.00;1.00;;;;;20.66;48.72;101483.00;4957278;28;45456;-73
2023/07/17 04:35:23;;;;;;;;;3.33;2.00;;;;;20.63;48.92;101475.97;4957073;28;45738;-73
2023/07/17 04:37:50;;;;;;;;;1.67;1.00;;;;;20.68;48.92;101476.69;4957136;28;45603;-71
2023/07/17 04:40:17;;;;;;;;;2.00;2.00;;;;;20.63;48.75;101467.13;4971231;28;45749;-73
2023/07/17 04:42:43;;;;;;;;;1.00;1.00;;;;;20.56;48.49;101454.91;4977876;28;45604;-72
2023/07/17 04:45:09;;;;;;;;;1.67;1.67;;;;;20.50;49.07;101464.78;4972210;28;45332;-71
2023/07/17 04:47:34;;;;;;;;;1.67;1.67;;;;;20.71;49.11;101487.25;4955944;28;45627;-72
2023/07/17 04:50:00;;;;;;;;;3.33;2.00;;;;;20.79;48.70;101479.06;4961158;28;46289;-72
2023/07/17 04:52:25;;;;;;;;;1.00;1.00;;;;;20.85;48.58;101491.31;4944859;28;45517;-72
2023/07/17 04:54:51;;;;;;;;;3.00;2.00;;;;;20.90;48.37;101470.75;4941376;28;45388;-71
2023/07/17 04:57:16;;;;;;;;;2.00;2.00;;;;;21.00;48.14;101488.22;4952681;28;45489;-71
2023/07/17 04:59:42;;;;;;;;;1.00;1.00;;;;;21.13;48.03;101488.72;4970776;28;46536;-69
2023/07/17 05:02:07;;;;;;;;;2.00;2.00;;;;;21.25;47.36;101490.16;4978781;28;45399;-67
2023/07/17 05:04:33;;;;;;;;;1.00;1.00;;;;;21.30;47.47;101485.56;4979897;28;45383;-71
2023/07/17 05:06:58;;;;;;;;;1.00;1.00;;;;;21.14;47.52;101493.13;4980285;28;45206;-71
2023/07/17 05:09:24;;;;;;;;;2.00;2.00;;;;;21.12;47.67;101500.31;4973530;28;45481;-67
2023/07/17 05:11:50;;;;;;;;;4.00;3.00;;;;;21.12;47.59;101481.66;4960941;28;45436;-68
2023/07/17 05:14:16;;;;;;;;;1.00;1.00;;;;;20.97;47.62;101480.31;4960945;28;45327;-73
2023/07/17 05:16:42;;;;;;;;;1.00;1.00;;;;;21.15;47.99;101494.88;4976041;28;45443;-71
2023/07/17 05:19:07;;;;;;;;;1.00;1.00;;;;;21.30;47.12;101498.88;4960224;28;45640;-73
2023/07/17 05:21:33;;;;;;;;;1.33;1.00;;;;;21.39;47.04;101502.16;4964102;28;45487;-72
2023/07/17 05:23:59;;;;;;;;;3.00;1.33;;;;;21.26;47.25;101492.78;4955939;28;45482;-74
2023/07/17 05:26:25;;;;;;;;;1.00;1.00;;;;;21.28;47.23;101508.69;4940372;28;45618;-70
2023/07/17 05:28:51;;;;;;;;;0.67;0.67;;;;;21.44;46.75;101511.81;4940271;28;45468;-71
2023/07/17 05:31:17;;;;;;;;;1.67;1.67;;;;;21.25;46.57;101483.03;4951046;28;45592;-73
2023/07/17 05:33:43;;;;;;;;;3.00;1.00;;;;;21.30;47.02;101491.75;4958198;28;45513;-71
2023/07/17 05:36:08;;;;;;;;;2.67;2.67;;;;;21.50;46.54;101503.63;4959405;28;45388;-72
2023/07/17 05:38:34;;;;;;;;;3.00;2.67;;;;;21.58;46.13;101502.44;4965020;28;45523;-70
2023/07/17 05:41:02;;;;;;;;;2.00;2.00;;;;;21.71;45.87;101513.63;4978664;28;45301;-72
2023/07/17 05:43:33;;;;;;;;;5.67;2.00;;;;;21.59;46.22;101516.66;4979329;28;45499;-74
2023/07/17 05:45:59;;;;;;;;;1.00;1.00;;;;;21.29;46.53;101489.16;4958057;28;45474;-71
2023/07/17 05:48:25;;;;;;;;;3.00;1.33;;;;;21.37;46.84;101511.09;4960124;28;45540;-71
2023/07/17 05:50:50;;;;;;;;;2.00;2.00;;;;;21.48;46.39;101516.13;4958371;28;45471;-74
2023/07/17 05:53:16;;;;;;;;;2.00;1.00;;;;;21.50;46.27;101523.16;4955152;28;45452;-72
2023/07/17 05:55:43;;;;;;;;;3.00;3.00;;;;;21.52;46.14;101525.75;4957127;28;45491;-72
2023/07/17 05:58:18;;;;;;;;;4.00;2.00;;;;;21.57;45.98;101527.38;4958537;28;46356;-71
2023/07/17 06:00:45;;;;;;;;;4.00;2.00;;;;;21.69;45.83;101530.56;4956438;28;45480;-73
2023/07/17 06:03:11;;;;;;;;;5.67;2.00;;;;;21.52;45.93;101515.09;4953557;28;46683;-70
2023/07/17 06:05:38;;;;;;;;;2.33;2.33;;;;;21.83;45.65;101547.00;4955356;28;45627;-71
2023/07/17 06:08:41;;;;;;;;;2.67;2.00;;;;;21.97;45.46;101541.22;4958090;28;45421;-72
2023/07/17 06:11:09;;;;;;;;;4.00;2.67;;;;;21.72;45.53;101536.69;4926416;28;45303;-72
2023/07/17 06:13:35;;;;;;;;;2.33;1.00;;;;;21.80;45.68;101529.28;4970921;28;45444;-72
2023/07/17 06:16:03;;;;;;;;;2.00;2.00;;;;;22.00;45.40;101543.78;4959986;28;45464;-73
2023/07/17 06:18:29;;;;;;;;;3.67;3.00;;;;;22.14;45.29;101529.97;4958587;28;46479;-71
2023/07/17 06:20:58;;;;;;;;;1.67;1.00;;;;;22.34;44.83;101542.69;4957939;28;45413;-71
2023/07/17 06:23:24;;;;;;;;;2.00;2.00;;;;;22.35;44.73;101512.41;4953864;28;45413;-73
2023/07/17 06:25:53;;;;;;;;;1.67;1.00;;;;;22.61;44.26;101544.41;4957875;28;45461;-72
2023/07/17 06:28:26;;;;;;;;;4.00;2.00;;;;;22.63;43.90;101537.19;4958128;28;45409;-75
2023/07/17 06:30:51;;;;;;;;;1.00;1.00;;;;;22.78;43.80;101540.22;4958263;28;45408;-70
2023/07/17 06:33:17;;;;;;;;;5.00;2.00;;;;;22.74;43.56;101527.94;4969598;28;46002;-69
2023/07/17 06:35:47;;;;;;;;;3.33;1.00;;;;;22.90;43.37;101542.50;4978064;28;45337;-74
2023/07/17 06:38:13;;;;;;;;;3.00;1.00;;;;;22.63;43.21;101491.78;4992608;28;46352;-73
2023/07/17 06:40:38;;;;;;;;;3.00;3.00;;;;;22.85;43.32;101518.63;4991985;28;45305;-74
2023/07/17 06:43:17;;;;;;;;;2.67;2.67;;;;;23.06;43.11;101553.50;4957971;28;45351;-73
2023/07/17 06:45:43;;;;;;;;;4.00;3.00;;;;;22.95;43.04;101512.94;4972953;28;45507;-67
2023/07/17 06:48:08;;;;;;;;;4.00;2.00;;;;;23.21;42.96;101549.38;4957996;28;45971;-67
2023/07/17 06:50:34;;;;;;;;;2.00;1.50;;;;;23.24;42.53;101550.13;4956673;28;45582;-70
2023/07/17 06:52:59;;;;;;;;;3.33;1.67;;;;;23.32;42.65;101552.50;4968280;28;45532;-76
2023/07/17 06:55:25;;;;;;;;;5.33;3.33;;;;;23.38;42.28;101548.75;4978262;28;45341;-73
2023/07/17 06:57:50;;;;;;;;;4.00;1.00;;;;;23.39;42.14;101542.44;4964705;28;45395;-73
2023/07/17 07:00:16;;;;;;;;;3.00;2.00;;;;;23.48;41.92;101555.47;4955891;28;45565;-72
2023/07/17 07:02:42;;;;;;;;;2.33;2.33;;;;;23.49;41.74;101560.75;4958852;28;45408;-68
2023/07/17 07:05:07;;;;;;;;;5.67;5.00;;;;;23.53;42.11;101556.16;4957727;28;45655;-69
2023/07/17 07:07:33;;;;;;;;;5.00;5.00;;;;;23.54;41.93;101549.00;4957727;28;46187;-68
2023/07/17 07:09:59;;;;;;;;;5.00;3.00;;;;;23.52;41.32;101543.72;4957986;28;45504;-70
2023/07/17 07:12:24;;;;;;;;;3.00;3.00;;;;;23.64;41.50;101558.41;4957142;28;45344;-69
2023/07/17 07:14:50;;;;;;;;;3.00;2.25;;;;;23.68;41.08;101571.59;4957451;28;45431;-71
2023/07/17 07:17:15;;;;;;;;;2.00;2.00;;;;;23.68;41.06;101563.59;4954422;28;46716;-71
2023/07/17 07:19:42;;;;;;;;;5.00;3.00;;;;;23.58;40.76;101542.59;4955919;28;45598;-73
2023/07/17 07:22:07;;;;;;;;;2.33;1.33;;;;;23.60;41.49;101571.03;4954889;28;46043;-70
2023/07/17 07:24:33;;;;;;;;;1.75;1.00;;;;;23.63;41.66;101564.69;4955888;28;45354;-71
2023/07/17 07:26:58;;;;;;;;;2.00;2.00;;;;;23.66;41.22;101559.22;4956806;28;46227;-70
2023/07/17 07:29:24;;;;;;;;;4.00;4.00;;;;;23.65;40.80;101549.44;4956924;28;45456;-68
2023/07/17 07:31:52;;;;;;;;;5.67;3.33;;;;;23.67;40.83;101561.81;4955511;28;45449;-69
2023/07/17 07:34:18;;;;;;;;;3.75;3.00;;;;;23.64;41.33;101572.66;4956852;28;45476;-73
2023/07/17 07:36:43;;;;;;;;;2.25;2.00;;;;;23.56;40.61;101561.38;4954543;28;45531;-72
2023/07/17 07:39:09;;;;;;;;;3.00;2.33;;;;;23.43;40.71;101544.09;4959089;28;45933;-70
2023/07/17 07:41:36;;;;;;;;;3.00;1.00;;;;;23.65;40.17;101582.41;4957352;28;45525;-69
2023/07/17 07:44:05;;;;;;;;;2.25;2.25;;;;;23.64;39.87;101574.47;4956485;28;45773;-70
2023/07/17 07:46:35;;;;;;;;;4.00;2.00;;;;;23.58;40.01;101574.69;4957498;28;46295;-72
2023/07/17 07:49:01;;;;;;;;;2.25;1.00;;;;;23.55;40.01;101575.69;4956409;28;45455;-69
2023/07/17 07:51:40;;;;;;;;;1.67;1.67;;;;;23.56;40.08;101585.44;4968784;28;45412;-70
2023/07/17 07:54:24;;;;;;;;;1.00;1.00;;;;;22.99;40.87;101525.25;4976566;28;45379;-69
2023/07/17 07:56:50;;;;;;;;;3.00;1.67;;;;;23.46;40.60;101584.06;4985468;28;45500;-69
2023/07/17 07:59:37;;;;;;;;;2.33;2.00;;;;;23.57;40.38;101589.88;4957290;28;45847;-69
2023/07/17 08:02:09;;;;;;;;;2.00;2.00;;;;;23.56;40.29;101568.53;4957835;28;45508;-70
2023/07/17 08:04:35;;;;;;;;;2.00;2.00;;;;;23.63;39.59;101578.94;4957077;28;45417;-69
2023/07/17 08:07:01;;;;;;;;;3.33;2.33;;;;;23.21;39.97;101509.31;4960354;28;45296;-75
2023/07/17 08:09:48;;;;;;;;;2.00;2.00;;;;;23.78;40.70;101587.34;4980931;28;45504;-79
2023/07/17 08:12:16;;;;;;;;;3.00;1.25;;;;;23.65;40.09;101557.47;4957214;28;45399;-78
2023/07/17 08:14:45;;;;;;;;;2.00;2.00;;;;;23.88;40.52;101600.25;4960984;28;45255;-76
2023/07/17 08:17:12;;;;;;;;;2.50;2.00;;;;;23.34;39.38;101490.97;4965155;28;46089;-72
2023/07/17 08:20:03;;;;;;;;;0.00;0.00;;;;;23.94;38.95;101599.13;4960495;28;45322;-65
2023/07/17 08:22:54;;;;;;;;;3.67;2.33;;;;;24.05;39.07;101612.97;4958790;28;45512;-69
2023/07/17 08:25:22;;;;;;;;;4.50;2.00;;;;;24.03;38.75;101582.72;4955755;28;45380;-69
2023/07/17 08:27:48;;;;;;;;;2.50;1.00;;;;;24.21;38.61;101598.97;4958815;28;46572;-68
2023/07/17 08:30:13;;;;;;;;;1.25;1.25;;;;;24.34;39.30;101609.09;4979714;28;45503;-69
2023/07/17 08:32:39;;;;;;;;;3.00;3.00;;;;;24.40;39.14;101607.97;4978506;28;45425;-72
2023/07/17 08:35:05;;;;;;;;;2.50;2.00;;;;;24.49;38.56;101606.75;4980408;28;45355;-67
2023/07/17 08:37:31;;;;;;;;;3.75;2.00;;;;;24.58;38.31;101603.66;4965887;28;48078;-69
2023/07/17 08:39:56;;;;;;;;;3.75;2.00;;;;;24.69;37.55;101601.38;4960374;28;45543;-67
2023/07/17 08:42:22;;;;;;;;;2.00;2.00;;;;;24.62;37.90;101586.53;4960133;28;45502;-68
2023/07/17 08:44:50;;;;;;;;;2.25;2.00;;;;;24.73;37.74;101599.47;4960978;28;45540;-67
2023/07/17 08:47:16;;;;;;;;;4.75;1.50;;;;;24.83;37.84;101600.78;4959529;28;45566;-69
2023/07/17 08:49:42;;;;;;;;;3.00;3.00;;;;;24.88;38.14;101589.88;4959952;28;45519;-69
2023/07/17 08:52:11;;;;;;;;;7.25;2.75;;;;;24.90;36.76;101594.22;4959922;28;45385;-71
2023/07/17 08:54:36;;;;;;;;;1.50;1.50;;;;;24.79;37.72;101596.50;4959917;28;45558;-70
2023/07/17 08:57:04;;;;;;;;;3.00;2.00;;;;;24.84;38.29;101605.19;4966923;28;46191;-72
2023/07/17 08:59:31;;;;;;;;;2.25;1.50;;;;;24.87;37.78;101582.78;4979501;28;45389;-70
2023/07/17 09:01:56;;;;;;;;;1.25;1.25;;;;;24.91;37.02;101570.97;4979576;28;45417;-70
2023/07/17 09:04:22;;;;;;;;;1.75;1.75;;;;;25.09;36.21;101610.34;4978942;28;45439;-69
2023/07/17 09:06:50;;;;;;;;;1.25;0.00;;;;;24.92;36.96;101591.47;4975766;28;46316;-73
2023/07/17 09:09:17;;;;;;;;;1.00;1.00;;;;;24.89;37.38;101610.34;4957987;28;45499;-73
2023/07/17 09:11:42;;;;;;;;;4.00;2.25;;;;;24.88;37.51;101597.91;4958797;28;45477;-72
2023/07/17 09:14:08;;;;;;;;;2.00;2.00;;;;;24.93;36.91;101590.53;4975425;28;45380;-73
2023/07/17 09:16:33;;;;;;;;;2.00;2.00;;;;;25.08;36.99;101595.22;4961688;28;45713;-70
2023/07/17 09:19:00;;;;;;;;;2.25;2.25;;;;;25.07;36.92;101606.00;4960074;28;45494;-70
2023/07/17 09:21:35;;;;;;;;;2.25;1.00;;;;;25.01;37.09;101575.00;4959019;28;45199;-72
2023/07/17 09:24:00;;;;;;;;;1.00;1.00;;;;;25.08;36.99;101588.97;4958871;28;45340;-71
2023/07/17 09:26:28;;;;;;;;;1.00;1.00;;;;;25.21;36.91;101608.97;4959392;28;45397;-71
2023/07/17 09:28:58;;;;;;;;;4.75;1.75;;;;;25.34;36.46;101603.88;4960675;28;45563;-69
2023/07/17 09:31:31;;;;;;;;;5.50;2.00;;;;;25.24;36.32;101591.84;4959824;28;45361;-71
2023/07/17 09:34:11;;;;;;;;;3.75;1.25;;;;;25.19;36.16;101586.69;4959520;28;45476;-70
2023/07/17 09:36:36;;;;;;;;;2.50;2.00;;;;;25.20;36.30;101576.84;4959453;28;45373;-69
2023/07/17 09:39:05;;;;;;;;;1.50;1.50;;;;;25.41;36.61;101604.47;4959109;28;45404;-70
2023/07/17 09:41:30;;;;;;;;;2.75;1.25;;;;;25.49;36.44;101602.34;4958520;28;45559;-66
2023/07/17 09:44:00;;;;;;;;;1.00;1.00;;;;;25.50;35.90;101587.97;4960794;28;45389;-66
2023/07/17 09:46:27;;;;;;;;;2.50;1.00;;;;;25.63;35.85;101609.69;4958533;28;46383;-67
2023/07/17 09:48:54;;;;;;;;;1.75;1.00;;;;;25.64;35.50;101606.09;4960739;28;45463;-67
2023/07/17 09:51:21;;;;;;;;;2.25;1.00;;;;;25.56;35.41;101601.09;4959239;28;45566;-67
2023/07/17 09:53:47;;;;;;;;;0.75;0.50;;;;;25.53;35.68;101609.28;4963013;28;45622;-67
2023/07/17 09:56:15;;;;;;;;;2.75;1.00;;;;;25.19;35.46;101565.25;4961280;28;45448;-67
2023/07/17 09:58:46;;;;;;;;;3.00;2.25;;;;;25.42;35.82;101599.06;4992709;28;45272;-66
2023/07/17 10:01:18;;;;;;;;;3.50;1.00;;;;;25.49;35.44;101579.06;4968832;28;45227;-66
2023/07/17 10:03:49;;;;;;;;;2.00;2.00;;;;;25.35;34.99;101593.09;4961942;28;45392;-66
2023/07/17 10:06:16;;;;;;;;;2.50;1.75;;;;;25.54;35.03;101608.34;4958809;28;45472;-66
2023/07/17 10:08:46;;;;;;;;;2.00;1.00;;;;;25.51;34.86;101585.22;4959836;28;45514;-67
2023/07/17 10:11:17;;;;;;;;;2.00;1.25;;;;;25.31;35.45;101537.88;4973167;28;45455;-67
2023/07/17 10:13:48;;;;;;;;;1.00;1.00;;;;;25.45;35.49;101556.00;4980258;28;45452;-66
2023/07/17 10:16:16;;;;;;;;;2.25;1.25;;;;;25.85;34.33;101607.75;4978534;28;45626;-66
2023/07/17 10:18:54;;;;;;;;;3.00;1.00;;;;;25.97;33.84;101604.50;4979738;28;45549;-67
2023/07/17 10:21:20;;;;;;;;;1.25;1.00;;;;;25.88;34.14;101598.72;4962333;28;45668;-68
2023/07/17 10:23:48;;;;;;;;;2.75;2.00;;;;;25.80;33.98;101610.66;4960237;28;45453;-68
2023/07/17 10:26:19;;;;;;;;;0.00;0.00;;;;;25.88;34.01;101601.41;4956043;28;46126;-67
2023/07/17 10:28:52;;;;;;;;;1.25;1.25;;;;;25.86;34.29;101606.81;4957256;28;45342;-69
2023/07/17 10:31:20;;;;;;;;;7.00;4.00;;;;;25.72;34.06;101604.78;4960747;28;45448;-69
2023/07/17 10:33:52;;;;;;;;;3.50;2.50;;;;;25.65;34.45;101597.97;4970142;28;45491;-67
2023/07/17 10:36:18;;;;;;;;;1.00;1.00;;;;;25.63;34.13;101594.50;4979140;28;46552;-67
2023/07/17 10:38:51;;;;;;;;;3.50;1.75;;;;;25.74;33.83;101600.19;4977615;28;45416;-68
2023/07/17 10:41:17;;;;;;;;;1.00;1.00;;;;;25.82;33.78;101605.22;4977736;28;45346;-67
2023/07/17 10:43:52;;;;;;;;;2.00;1.25;;;;;25.85;33.58;101594.34;4980718;28;45562;-69
2023/07/17 10:46:18;;;;;;;;;2.00;2.00;;;;;25.74;33.90;101600.19;4980503;28;45381;-68
2023/07/17 10:48:44;;;;;;;;;1.50;1.50;;;;;25.58;34.22;101577.75;4979222;28;45299;-68
2023/07/17 10:51:09;;;;;;;;;1.00;1.00;;;;;25.74;33.73;101589.47;4978114;28;45387;-68
2023/07/17 10:53:35;;;;;;;;;4.00;1.50;;;;;25.96;33.72;101599.19;4978252;28;45793;-67
2023/07/17 10:56:01;;;;;;;;;2.00;2.00;;;;;26.06;33.81;101599.63;4977699;28;45403;-68
2023/07/17 10:58:27;;;;;;;;;3.50;2.25;;;;;26.03;33.63;101592.59;4959336;28;45664;-68
2023/07/17 11:00:53;;;;;;;;;5.25;2.00;;;;;26.16;32.94;101599.09;4958278;28;45500;-67
2023/07/17 11:03:24;;;;;;;;;2.00;1.00;;;;;26.40;32.72;101607.72;4956862;28;45648;-68
2023/07/17 11:05:55;;;;;;;;;3.50;3.00;;;;;26.55;32.44;101590.00;4958232;28;46388;-69
2023/07/17 11:08:25;;;;;;;;;19.00;16.00;;;;;26.65;31.55;101576.97;4959392;28;45327;-67
2023/07/17 11:10:51;;;;;;;;;7.50;7.00;;;;;26.76;31.42;101595.19;4974500;28;45491;-67
2023/07/17 11:13:17;;;;;;;;;2.50;2.00;;;;;26.61;31.03;101581.63;4958619;28;45499;-67
2023/07/17 11:15:44;;;;;;;;;2.00;2.00;;;;;26.59;31.37;101593.38;4952249;28;45395;-68
2023/07/17 11:18:10;;;;;;;;;286.50;261.25;;;;;26.52;33.38;101606.22;4942747;28;45476;-68
2023/07/17 11:20:35;;;;;;;;;504.50;447.00;;;;;26.65;33.51;101593.94;4957992;28;45456;-68
2023/07/17 11:23:01;;;;;;;;;149.00;140.25;;;;;26.77;32.21;101586.22;4957371;28;45485;-69
2023/07/17 11:25:29;;;;;;;;;72.50;57.25;;;;;26.85;32.30;101605.47;4957905;28;45348;-70